createdAt,value
2018-11-22T00:00:06.207Z,31.7
2018-11-22T00:02:05.917Z,31.7
2018-11-22T00:04:08.188Z,31.4
2018-11-22T00:06:06.186Z,31.5
2018-11-22T00:08:06.030Z,31.5
2018-11-22T00:10:05.802Z,31.4
2018-11-22T00:12:05.531Z,31.3
2018-11-22T00:14:05.295Z,30.8
2018-11-22T00:16:05.988Z,30.7
2018-11-22T00:18:07.908Z,30.9
2018-11-22T00:20:10.180Z,30.9
2018-11-22T00:22:05.941Z,30.9
2018-11-22T00:24:05.964Z,30.9
2018-11-22T00:26:08.190Z,30.9
2018-11-22T00:28:05.096Z,30.9
2018-11-22T00:30:05.822Z,30.9
2018-11-22T00:32:08.273Z,30.9
2018-11-22T00:34:05.490Z,30.9
2018-11-22T00:36:05.209Z,30.9
2018-11-22T00:38:05.876Z,30.9
2018-11-22T00:40:05.101Z,30.9
2018-11-22T00:42:10.943Z,30.9
2018-11-22T00:44:13.295Z,30.9
2018-11-22T00:46:06.210Z,30.8
2018-11-22T00:48:06.019Z,30.6
2018-11-22T00:50:08.264Z,30.6
2018-11-22T00:52:08.453Z,30.4
2018-11-22T00:54:10.290Z,30.3
2018-11-22T00:56:05.511Z,30.3
2018-11-22T00:58:05.748Z,30.5
2018-11-22T01:00:13.045Z,30.2
2018-11-22T01:02:05.849Z,30.4
2018-11-22T01:04:05.636Z,30.4
2018-11-22T01:06:07.873Z,30.2
2018-11-22T01:08:05.628Z,30
2018-11-22T01:10:05.308Z,30.2
2018-11-22T01:12:05.690Z,30.2
2018-11-22T01:14:07.978Z,30.1
2018-11-22T01:16:05.650Z,30.1
2018-11-22T01:18:05.577Z,30.1
2018-11-22T01:20:07.819Z,30
2018-11-22T01:22:05.544Z,30
2018-11-22T01:24:07.759Z,30
2018-11-22T01:26:05.569Z,30
2018-11-22T01:28:05.483Z,30
2018-11-22T01:30:05.512Z,30
2018-11-22T01:32:05.192Z,30
2018-11-22T01:34:05.903Z,30
2018-11-22T01:36:05.640Z,29.9
2018-11-22T01:38:05.387Z,30
2018-11-22T01:40:05.031Z,29.9
2018-11-22T01:42:05.817Z,29.9
2018-11-22T01:44:08.056Z,29.9
2018-11-22T01:46:05.756Z,29.9
2018-11-22T01:48:10.644Z,29.8
2018-11-22T01:50:05.388Z,29.8
2018-11-22T01:52:05.595Z,29.8
2018-11-22T01:54:05.273Z,29.8
2018-11-22T01:56:05.502Z,29.7
2018-11-22T01:58:05.400Z,29.7
2018-11-22T02:00:05.094Z,29.7
2018-11-22T02:02:05.796Z,29.7
2018-11-22T02:04:05.601Z,29.7
2018-11-22T02:06:05.357Z,29.7
2018-11-22T02:08:05.118Z,29.7
2018-11-22T02:10:08.332Z,29.6
2018-11-22T02:12:05.225Z,29.6
2018-11-22T02:14:05.981Z,29.6
2018-11-22T02:16:05.231Z,29.5
2018-11-22T02:18:05.220Z,29.5
2018-11-22T02:20:05.469Z,29.5
2018-11-22T02:22:05.193Z,29.5
2018-11-22T02:24:05.906Z,29.5
2018-11-22T02:26:05.638Z,29.5
2018-11-22T02:28:05.468Z,29.4
2018-11-22T02:30:05.176Z,29.5
2018-11-22T02:32:05.910Z,29.4
2018-11-22T02:34:05.615Z,29.4
2018-11-22T02:36:05.284Z,29.4
2018-11-22T02:38:05.998Z,29.5
2018-11-22T02:40:05.675Z,29.4
2018-11-22T02:42:05.077Z,29.4
2018-11-22T02:44:08.260Z,29.4
2018-11-22T02:46:05.522Z,29.4
2018-11-22T02:48:05.238Z,29.3
2018-11-22T02:50:05.885Z,29.3
2018-11-22T02:52:05.555Z,29.3
2018-11-22T02:54:05.247Z,29.3
2018-11-22T02:56:05.970Z,29.3
2018-11-22T02:58:08.176Z,29.2
2018-11-22T03:00:05.900Z,29.2
2018-11-22T03:02:05.579Z,29.2
2018-11-22T03:04:05.765Z,29.2
2018-11-22T03:06:05.414Z,29.2
2018-11-22T03:08:07.646Z,29.2
2018-11-22T03:10:05.340Z,29.2
2018-11-22T03:12:04.993Z,29.2
2018-11-22T03:14:05.714Z,29.2
2018-11-22T03:16:05.925Z,29.2
2018-11-22T03:18:05.804Z,29.1
2018-11-22T03:20:05.503Z,29.1
2018-11-22T03:22:05.185Z,29.2
2018-11-22T03:24:05.850Z,29.1
2018-11-22T03:26:05.609Z,29.1
2018-11-22T03:28:05.319Z,29.1
2018-11-22T03:30:06.018Z,29.1
2018-11-22T03:32:13.287Z,29.1
2018-11-22T03:34:08.753Z,29
2018-11-22T03:36:05.509Z,29
2018-11-22T03:38:08.281Z,29.1
2018-11-22T03:40:05.948Z,29
2018-11-22T03:42:05.651Z,29.2
2018-11-22T03:44:05.346Z,28.9
2018-11-22T03:46:05.198Z,28.9
2018-11-22T03:48:05.437Z,29
2018-11-22T03:50:05.696Z,28.9
2018-11-22T03:52:05.351Z,28.9
2018-11-22T03:54:07.540Z,28.9
2018-11-22T03:56:07.006Z,28.9
2018-11-22T03:58:05.723Z,28.9
2018-11-22T04:00:08.030Z,28.9
2018-11-22T04:02:05.909Z,28.9
2018-11-22T04:04:05.634Z,28.8
2018-11-22T04:06:05.278Z,28.9
2018-11-22T04:08:05.965Z,28.8
2018-11-22T04:10:05.785Z,28.9
2018-11-22T04:12:05.531Z,28.8
2018-11-22T04:14:05.228Z,28.8
2018-11-22T04:16:05.469Z,28.8
2018-11-22T04:18:07.895Z,28.8
2018-11-22T04:20:05.591Z,28.8
2018-11-22T04:22:05.301Z,28.8
2018-11-22T04:24:06.010Z,28.8
2018-11-22T04:26:05.754Z,28.8
2018-11-22T04:28:05.424Z,28.7
2018-11-22T04:30:05.121Z,28.8
2018-11-22T04:32:10.877Z,28.5
2018-11-22T04:34:05.542Z,28.7
2018-11-22T04:36:05.163Z,28.7
2018-11-22T04:38:08.388Z,28.6
2018-11-22T04:40:05.584Z,28.6
2018-11-22T04:42:05.241Z,28.6
2018-11-22T04:44:05.969Z,28.6
2018-11-22T04:46:05.644Z,28.6
2018-11-22T04:48:05.338Z,28.5
2018-11-22T04:50:05.117Z,28.5
2018-11-22T04:52:05.292Z,28.5
2018-11-22T04:54:13.544Z,28.5
2018-11-22T04:56:05.272Z,28.5
2018-11-22T04:58:05.916Z,28.6
2018-11-22T05:00:05.596Z,28.6
2018-11-22T05:02:05.362Z,28.6
2018-11-22T05:04:07.659Z,28.4
2018-11-22T05:06:05.382Z,28.4
2018-11-22T05:08:05.130Z,28.6
2018-11-22T05:10:05.359Z,28.6
2018-11-22T05:12:05.095Z,28.5
2018-11-22T05:14:05.822Z,28.4
2018-11-22T05:16:08.018Z,28.4
2018-11-22T05:18:05.465Z,28.3
2018-11-22T05:20:05.705Z,28.4
2018-11-22T05:22:08.491Z,28.4
2018-11-22T05:24:07.725Z,28.3
2018-11-22T05:26:05.371Z,28.3
2018-11-22T05:28:05.062Z,28.3
2018-11-22T05:30:05.748Z,28.3
2018-11-22T05:32:11.020Z,28.3
2018-11-22T05:34:06.441Z,28.3
2018-11-22T05:36:05.103Z,28.3
2018-11-22T05:38:08.317Z,28.3
2018-11-22T05:40:07.574Z,28.4
2018-11-22T05:42:07.755Z,28.4
2018-11-22T05:44:05.462Z,28.4
2018-11-22T05:46:13.209Z,28.2
2018-11-22T05:48:05.284Z,28.7
2018-11-22T05:50:08.563Z,28.4
2018-11-22T05:52:05.243Z,28.4
2018-11-22T05:54:08.488Z,28.4
2018-11-22T05:56:05.176Z,28.2
2018-11-22T05:58:05.390Z,28.2
2018-11-22T06:00:05.110Z,28.3
2018-11-22T06:02:05.777Z,28.3
2018-11-22T06:04:05.499Z,28.3
2018-11-22T06:06:05.180Z,28.5
2018-11-22T06:08:05.891Z,28.6
2018-11-22T06:10:05.559Z,28.7
2018-11-22T06:12:05.336Z,28.7
2018-11-22T06:14:05.017Z,28.8
2018-11-22T06:16:05.699Z,28.9
2018-11-22T06:18:05.604Z,28.9
2018-11-22T06:20:05.236Z,29.1
2018-11-22T06:22:06.008Z,29.1
2018-11-22T06:24:05.272Z,29.2
2018-11-22T06:26:05.955Z,29.3
2018-11-22T06:28:05.634Z,29.2
2018-11-22T06:30:05.372Z,29.1
2018-11-22T06:32:05.078Z,29.1
2018-11-22T06:34:05.784Z,29.2
2018-11-22T06:36:05.425Z,29.1
2018-11-22T06:38:05.103Z,29.1
2018-11-22T06:40:05.885Z,29.2
2018-11-22T06:42:08.189Z,29.2
2018-11-22T06:44:05.442Z,29.2
2018-11-22T06:46:05.066Z,29.3
2018-11-22T06:48:05.854Z,29.2
2018-11-22T06:50:05.379Z,29.2
2018-11-22T06:52:05.270Z,29.2
2018-11-22T06:54:05.977Z,29.2
2018-11-22T06:56:05.283Z,29.2
2018-11-22T06:58:05.904Z,29.2
2018-11-22T07:00:05.572Z,29.2
2018-11-22T07:02:07.809Z,29.2
2018-11-22T07:04:05.541Z,29.2
2018-11-22T07:06:05.236Z,29.2
2018-11-22T07:08:05.928Z,29.1
2018-11-22T07:10:10.701Z,29
2018-11-22T07:12:05.410Z,29
2018-11-22T07:14:05.192Z,29.1
2018-11-22T07:16:07.968Z,29.1
2018-11-22T07:18:05.898Z,29.1
2018-11-22T07:20:05.561Z,29.1
2018-11-22T07:22:10.320Z,29.1
2018-11-22T07:24:05.937Z,29.1
2018-11-22T07:26:05.649Z,29.1
2018-11-22T07:28:05.339Z,29.1
2018-11-22T07:30:05.030Z,29.1
2018-11-22T07:32:05.754Z,29.1
2018-11-22T07:34:05.417Z,28.9
2018-11-22T07:36:05.074Z,28.9
2018-11-22T07:38:08.375Z,29
2018-11-22T07:40:05.088Z,29
2018-11-22T07:42:05.905Z,29
2018-11-22T07:44:06.779Z,28.9
2018-11-22T07:46:06.013Z,29
2018-11-22T07:48:05.667Z,29
2018-11-22T07:50:05.326Z,29
2018-11-22T07:52:05.066Z,29
2018-11-22T07:54:05.783Z,28.9
2018-11-22T07:56:06.098Z,28.9
2018-11-22T07:58:05.802Z,28.9
2018-11-22T08:00:05.485Z,28.9
2018-11-22T08:02:05.185Z,28.8
2018-11-22T08:04:05.885Z,28.8
2018-11-22T08:06:05.099Z,28.8
2018-11-22T08:08:05.784Z,28.8
2018-11-22T08:10:08.503Z,28.8
2018-11-22T08:12:12.140Z,28.8
2018-11-22T08:14:05.907Z,28.8
2018-11-22T08:16:05.575Z,28.9
2018-11-22T08:18:07.524Z,28.7
2018-11-22T08:20:05.244Z,28.6
2018-11-22T08:22:05.986Z,28.6
2018-11-22T08:24:05.676Z,28.6
2018-11-22T08:26:05.887Z,28.6
2018-11-22T08:28:05.714Z,28.6
2018-11-22T08:30:05.416Z,28.6
2018-11-22T08:32:07.713Z,28.7
2018-11-22T08:34:05.473Z,28.7
2018-11-22T08:36:05.215Z,28.6
2018-11-22T08:38:10.538Z,28.7
2018-11-22T08:40:05.204Z,28.7
2018-11-22T08:42:05.865Z,28.7
2018-11-22T08:44:05.645Z,28.7
2018-11-22T08:46:05.857Z,28.9
2018-11-22T08:48:05.560Z,28.7
2018-11-22T08:50:05.330Z,28.7
2018-11-22T08:52:05.124Z,28.7
2018-11-22T08:54:05.836Z,28.7
2018-11-22T08:56:08.083Z,28.7
2018-11-22T08:58:05.782Z,28.7
2018-11-22T09:00:05.485Z,28.8
2018-11-22T09:02:05.179Z,28.7
2018-11-22T09:04:05.953Z,28.8
2018-11-22T09:06:05.714Z,28.9
2018-11-22T09:08:05.463Z,28.9
2018-11-22T09:10:05.140Z,28.8
2018-11-22T09:12:05.840Z,28.8
2018-11-22T09:14:05.068Z,28.6
2018-11-22T09:16:08.255Z,28.7
2018-11-22T09:18:05.176Z,28.7
2018-11-22T09:20:05.916Z,28.9
2018-11-22T09:22:05.609Z,28.7
2018-11-22T09:24:05.322Z,28.9
2018-11-22T09:26:05.977Z,28.8
2018-11-22T09:28:05.599Z,28.9
2018-11-22T09:30:05.268Z,29.1
2018-11-22T09:32:05.544Z,29
2018-11-22T09:34:05.295Z,29
2018-11-22T09:36:11.053Z,28.9
2018-11-22T09:38:05.810Z,28.9
2018-11-22T09:40:05.467Z,29.1
2018-11-22T09:42:10.348Z,29
2018-11-22T09:44:05.571Z,29
2018-11-22T09:46:05.269Z,29
2018-11-22T09:48:05.963Z,29
2018-11-22T09:50:05.920Z,29
2018-11-22T09:52:05.172Z,29.1
2018-11-22T09:54:05.848Z,29.1
2018-11-22T09:56:05.548Z,29
2018-11-22T09:58:05.215Z,29
2018-11-22T10:00:05.916Z,29.1
2018-11-22T10:02:05.588Z,29.1
2018-11-22T10:04:05.330Z,29.1
2018-11-22T10:06:05.046Z,29.1
2018-11-22T10:08:05.279Z,29
2018-11-22T10:10:06.067Z,28.9
2018-11-22T10:12:05.875Z,29.1
2018-11-22T10:14:05.532Z,29.1
2018-11-22T10:16:07.741Z,29.1
2018-11-22T10:18:05.637Z,29.1
2018-11-22T10:20:05.317Z,28.9
2018-11-22T10:22:05.539Z,29.1
2018-11-22T10:24:05.336Z,29
2018-11-22T10:26:05.159Z,29
2018-11-22T10:28:05.851Z,29
2018-11-22T10:30:05.780Z,29.1
2018-11-22T10:32:05.682Z,29
2018-11-22T10:34:12.953Z,29
2018-11-22T10:36:07.954Z,29.1
2018-11-22T10:38:05.922Z,29.1
2018-11-22T10:40:05.447Z,29.2
2018-11-22T10:42:05.194Z,29
2018-11-22T10:44:05.887Z,29
2018-11-22T10:46:05.136Z,29
2018-11-22T10:48:05.907Z,29.1
2018-11-22T10:50:05.154Z,29.2
2018-11-22T10:52:05.933Z,29.1
2018-11-22T10:54:07.565Z,29
2018-11-22T10:56:07.812Z,29.2
2018-11-22T10:58:05.518Z,29
2018-11-22T11:00:05.823Z,29.1
2018-11-22T11:02:05.541Z,29.1
2018-11-22T11:04:05.770Z,29.2
2018-11-22T11:06:05.452Z,29.2
2018-11-22T11:08:12.821Z,29.1
2018-11-22T11:10:05.508Z,29
2018-11-22T11:12:05.861Z,29.1
2018-11-22T11:14:10.188Z,29.2
2018-11-22T11:16:05.867Z,29.2
2018-11-22T11:18:05.755Z,29.2
2018-11-22T11:20:05.542Z,29.2
2018-11-22T11:22:05.988Z,29.3
2018-11-22T11:24:07.820Z,29.3
2018-11-22T11:26:05.508Z,29.3
2018-11-22T11:28:05.220Z,29.5
2018-11-22T11:30:05.913Z,29.5
2018-11-22T11:32:05.655Z,29.5
2018-11-22T11:34:05.218Z,29.6
2018-11-22T11:36:05.963Z,29.6
2018-11-22T11:38:05.696Z,29.7
2018-11-22T11:40:05.424Z,29.6
2018-11-22T11:42:05.224Z,29.7
2018-11-22T11:44:06.024Z,29.7
2018-11-22T11:46:05.726Z,29.7
2018-11-22T11:48:05.474Z,29.7
2018-11-22T11:50:05.245Z,29.5
2018-11-22T11:52:05.915Z,29.6
2018-11-22T11:54:07.775Z,29.6
2018-11-22T11:56:05.701Z,29.6
2018-11-22T11:58:05.380Z,29.7
2018-11-22T12:00:10.131Z,29.6
2018-11-22T12:02:05.812Z,29.6
2018-11-22T12:04:06.590Z,29.6
2018-11-22T12:06:05.855Z,29.7
2018-11-22T12:08:05.592Z,29.7
2018-11-22T12:10:05.317Z,29.7
2018-11-22T12:12:07.593Z,29.6
2018-11-22T12:14:05.290Z,29.6
2018-11-22T12:16:05.988Z,29.6
2018-11-22T12:18:05.416Z,29.7
2018-11-22T12:20:05.217Z,29.6
2018-11-22T12:22:05.881Z,29.6
2018-11-22T12:24:05.554Z,29.6
2018-11-22T12:26:05.229Z,29.5
2018-11-22T12:28:05.986Z,29.5
2018-11-22T12:30:08.263Z,29.5
2018-11-22T12:32:05.393Z,29.6
2018-11-22T12:34:05.641Z,29.5
2018-11-22T12:36:05.588Z,29.5
2018-11-22T12:38:13.410Z,29.5
2018-11-22T12:40:05.148Z,29.5
2018-11-22T12:42:08.365Z,29.4
2018-11-22T12:44:05.098Z,29.4
2018-11-22T12:46:05.758Z,29.5
2018-11-22T12:48:05.452Z,29.5
2018-11-22T12:50:07.672Z,29.4
2018-11-22T12:52:05.395Z,29.4
2018-11-22T12:54:06.178Z,29.5
2018-11-22T12:56:05.349Z,29.6
2018-11-22T12:58:05.054Z,29.4
2018-11-22T13:00:08.299Z,29.5
2018-11-22T13:02:18.781Z,29.3
2018-11-22T13:04:05.479Z,29.3
2018-11-22T13:06:05.224Z,29.5
2018-11-22T13:08:10.949Z,29.5
2018-11-22T13:10:05.163Z,29.5
2018-11-22T13:12:05.872Z,29.3
2018-11-22T13:14:05.563Z,29.5
2018-11-22T13:16:05.224Z,29.4
2018-11-22T13:18:05.117Z,29.5
2018-11-22T13:20:05.811Z,29.5
2018-11-22T13:22:05.479Z,29.4
2018-11-22T13:24:05.156Z,29.4
2018-11-22T13:26:05.409Z,29.4
2018-11-22T13:28:05.130Z,29.4
2018-11-22T13:30:08.409Z,29.4
2018-11-22T13:32:07.693Z,29.4
2018-11-22T13:34:05.121Z,29.4
2018-11-22T13:36:08.334Z,29.4
2018-11-22T13:38:05.057Z,29.4
2018-11-22T13:40:05.793Z,29.5
2018-11-22T13:42:08.417Z,29.3
2018-11-22T13:44:06.007Z,29.3
2018-11-22T13:46:05.838Z,29.3
2018-11-22T13:48:06.614Z,29.4
2018-11-22T13:50:10.414Z,29.5
2018-11-22T13:52:05.231Z,29.5
2018-11-22T13:54:05.932Z,29.5
2018-11-22T13:56:08.213Z,29.3
2018-11-22T13:58:05.933Z,29.4
2018-11-22T14:00:05.576Z,29.4
2018-11-22T14:02:05.557Z,29.5
2018-11-22T14:04:05.088Z,29.5
2018-11-22T14:06:05.865Z,29.5
2018-11-22T14:08:05.546Z,29.5
2018-11-22T14:10:05.779Z,29.4
2018-11-22T14:12:05.499Z,29.4
2018-11-22T14:14:05.263Z,29.4
2018-11-22T14:16:05.975Z,29.4
2018-11-22T14:18:05.949Z,29.4
2018-11-22T14:20:10.692Z,29.4
2018-11-22T14:22:06.358Z,29.4
2018-11-22T14:24:05.246Z,29.4
2018-11-22T14:26:05.933Z,29.5
2018-11-22T14:28:07.687Z,29.4
2018-11-22T14:30:06.200Z,29.4
2018-11-22T14:32:10.922Z,29.4
2018-11-22T14:34:10.683Z,29.4
2018-11-22T14:36:05.392Z,29.3
2018-11-22T14:38:07.617Z,29.4
2018-11-22T14:40:05.831Z,29.4
2018-11-22T14:42:05.089Z,29.4
2018-11-22T14:44:05.846Z,29.4
2018-11-22T14:46:05.511Z,29.3
2018-11-22T14:48:05.744Z,29.5
2018-11-22T14:50:05.550Z,29.3
2018-11-22T14:52:05.821Z,29.3
2018-11-22T14:54:05.028Z,29.3
2018-11-22T14:56:05.796Z,29.3
2018-11-22T14:58:05.565Z,29.2
2018-11-22T15:00:05.299Z,29.4
2018-11-22T15:02:08.724Z,29.2
2018-11-22T15:04:05.401Z,29.2
2018-11-22T15:06:05.076Z,29.2
2018-11-22T15:08:05.380Z,29.2
2018-11-22T15:10:07.634Z,29.2
2018-11-22T15:12:13.503Z,29.2
2018-11-22T15:14:11.508Z,29.4
2018-11-22T15:16:09.776Z,29.2
2018-11-22T15:18:05.809Z,29.4
2018-11-22T15:20:08.434Z,29.2
2018-11-22T15:22:05.734Z,29.2
2018-11-22T15:24:07.989Z,29.1
2018-11-22T15:26:05.822Z,29.3
2018-11-22T15:28:28.456Z,29.2
2018-11-22T15:30:09.280Z,29.2
2018-11-22T15:32:27.184Z,29.4
2018-11-22T15:34:08.439Z,29.4
2018-11-22T15:36:05.141Z,29.4
2018-11-22T15:38:05.879Z,29.5
2018-11-22T15:40:05.109Z,29.5
2018-11-22T15:42:05.834Z,29.4
2018-11-22T15:44:05.626Z,29.4
2018-11-22T15:46:07.853Z,29.5
2018-11-22T15:48:05.748Z,29.4
2018-11-22T15:50:05.442Z,29.5
2018-11-22T15:52:07.682Z,29.8
2018-11-22T15:54:05.578Z,29.8
2018-11-22T15:56:05.346Z,29.8
2018-11-22T15:58:05.604Z,29.9
2018-11-22T16:00:05.507Z,29.9
2018-11-22T16:02:05.474Z,29.8
2018-11-22T16:04:10.446Z,29.6
2018-11-22T16:06:05.220Z,29.6
2018-11-22T16:08:05.952Z,29.6
2018-11-22T16:10:07.747Z,29.6
2018-11-22T16:12:05.680Z,29.6
2018-11-22T16:14:05.624Z,29.7
2018-11-22T16:16:08.425Z,29.7
2018-11-22T16:18:05.277Z,29.7
2018-11-22T16:20:05.116Z,29.7
2018-11-22T16:22:08.350Z,29.6
2018-11-22T16:24:07.624Z,29.6
2018-11-22T16:26:05.325Z,29.6
2018-11-22T16:28:05.530Z,29.6
2018-11-22T16:30:05.214Z,29.6
2018-11-22T16:32:05.897Z,29.5
2018-11-22T16:34:05.280Z,29.5
2018-11-22T16:36:05.986Z,29.7
2018-11-22T16:38:05.688Z,29.6
2018-11-22T16:40:05.352Z,29.6
2018-11-22T16:42:07.548Z,29.7
2018-11-22T16:44:07.764Z,29.6
2018-11-22T16:46:07.968Z,29.6
2018-11-22T16:48:05.762Z,29.6
2018-11-22T16:50:05.036Z,29.5
2018-11-22T16:52:05.754Z,29.7
2018-11-22T16:54:04.997Z,29.6
2018-11-22T16:56:08.239Z,29.5
2018-11-22T16:58:05.965Z,29.6
2018-11-22T17:00:05.673Z,29.5
2018-11-22T17:02:05.357Z,29.6
2018-11-22T17:04:05.191Z,29.6
2018-11-22T17:06:05.882Z,29.6
2018-11-22T17:08:05.584Z,29.6
2018-11-22T17:10:05.242Z,29.6
2018-11-22T17:12:05.950Z,29.6
2018-11-22T17:14:08.188Z,29.5
2018-11-22T17:16:05.406Z,29.5
2018-11-22T17:18:05.806Z,29.5
2018-11-22T17:20:05.090Z,29.5
2018-11-22T17:22:05.985Z,29.4
2018-11-22T17:24:05.833Z,29.6
2018-11-22T17:26:05.231Z,29.5
2018-11-22T17:28:08.514Z,29.5
2018-11-22T17:30:11.898Z,29.5
2018-11-22T17:32:10.845Z,29.5
2018-11-22T17:34:05.390Z,29.5
2018-11-22T17:36:07.664Z,29.5
2018-11-22T17:38:05.391Z,29.5
2018-11-22T17:40:07.615Z,29.5
2018-11-22T17:42:05.271Z,29.5
2018-11-22T17:44:05.956Z,29.6
2018-11-22T17:46:05.636Z,29.5
2018-11-22T17:48:05.913Z,29.7
2018-11-22T17:50:10.489Z,29.6
2018-11-22T17:52:05.753Z,29.6
2018-11-22T17:54:07.972Z,29.5
2018-11-22T17:56:05.705Z,29.5
2018-11-22T17:58:05.475Z,29.6
2018-11-22T18:00:05.200Z,29.3
2018-11-22T18:02:05.926Z,29.2
2018-11-22T18:04:05.666Z,29.2
2018-11-22T18:06:05.358Z,29.3
2018-11-22T18:08:05.035Z,29.2
2018-11-22T18:10:06.038Z,29.3
2018-11-22T18:12:05.755Z,29.2
2018-11-22T18:14:05.498Z,29.2
2018-11-22T18:16:15.424Z,29.2
2018-11-22T18:18:07.953Z,29.3
2018-11-22T18:20:13.306Z,29.3
2018-11-22T18:22:05.085Z,29.3
2018-11-22T18:24:05.926Z,29.2
2018-11-22T18:26:05.612Z,29.2
2018-11-22T18:28:05.305Z,29.3
2018-11-22T18:30:05.443Z,29.3
2018-11-22T18:32:05.097Z,29.3
2018-11-22T18:34:06.014Z,29.3
2018-11-22T18:36:05.774Z,29.3
2018-11-22T18:38:05.425Z,29.3
2018-11-22T18:40:05.077Z,29.3
2018-11-22T18:42:05.748Z,29.3
2018-11-22T18:44:05.428Z,29.3
2018-11-22T18:46:05.391Z,29.3
2018-11-22T18:48:05.117Z,29.3
2018-11-22T18:50:05.348Z,29.3
2018-11-22T18:52:07.567Z,29.3
2018-11-22T18:54:05.407Z,29.3
2018-11-22T18:56:05.102Z,29.4
2018-11-22T18:58:05.819Z,29.4
2018-11-22T19:00:05.560Z,29.3
2018-11-22T19:02:05.266Z,29.5
2018-11-22T19:04:05.434Z,29.4
2018-11-22T19:06:07.647Z,29.4
2018-11-22T19:08:05.361Z,29.4
2018-11-22T19:10:10.129Z,29.5
2018-11-22T19:12:10.899Z,29.2
2018-11-22T19:14:05.593Z,29.2
2018-11-22T19:16:07.918Z,29.3
2018-11-22T19:18:05.855Z,29.3
2018-11-22T19:20:09.644Z,29.3
2018-11-22T19:22:05.392Z,29.3
2018-11-22T19:24:05.078Z,29.3
2018-11-22T19:26:10.905Z,29.4
2018-11-22T19:28:05.622Z,29.2
2018-11-22T19:30:05.399Z,29.2
2018-11-22T19:32:08.118Z,29.3
2018-11-22T19:34:05.971Z,29.2
2018-11-22T19:36:08.304Z,29.1
2018-11-22T19:38:08.505Z,29.1
2018-11-22T19:40:05.787Z,29.3
2018-11-22T19:42:10.555Z,29.1
2018-11-22T19:44:09.971Z,29.3
2018-11-22T19:46:05.704Z,29.2
2018-11-22T19:48:10.523Z,29.2
2018-11-22T19:50:05.228Z,29.2
2018-11-22T19:52:05.953Z,29.2
2018-11-22T19:54:05.646Z,29.2
2018-11-22T19:56:05.377Z,29.2
2018-11-22T19:58:07.635Z,29.2
2018-11-22T20:00:07.925Z,29.1
2018-11-22T20:02:10.614Z,29.3
2018-11-22T20:04:05.547Z,29.1
2018-11-22T20:06:05.464Z,29.2
2018-11-22T20:08:05.173Z,29.2
2018-11-22T20:10:05.848Z,29.2
2018-11-22T20:12:05.090Z,29.2
2018-11-22T20:14:08.338Z,29.2
2018-11-22T20:16:05.594Z,29
2018-11-22T20:18:08.000Z,29.1
2018-11-22T20:20:05.668Z,29.1
2018-11-22T20:22:05.414Z,29
2018-11-22T20:24:05.092Z,29.2
2018-11-22T20:26:08.343Z,29.1
2018-11-22T20:28:05.111Z,29.1
2018-11-22T20:30:05.784Z,29.1
2018-11-22T20:32:05.482Z,29.2
2018-11-22T20:34:05.925Z,28.9
2018-11-22T20:36:08.317Z,29.1
2018-11-22T20:38:05.191Z,29.1
2018-11-22T20:40:05.954Z,29.1
2018-11-22T20:42:05.816Z,29
2018-11-22T20:44:05.497Z,28.9
2018-11-22T20:46:10.282Z,29.1
2018-11-22T20:48:05.444Z,29
2018-11-22T20:50:05.353Z,29
2018-11-22T20:52:05.077Z,29.1
2018-11-22T20:54:05.297Z,29
2018-11-22T20:56:06.001Z,29
2018-11-22T20:58:05.736Z,29
2018-11-22T21:00:05.506Z,29
2018-11-22T21:02:08.369Z,29.1
2018-11-22T21:04:05.086Z,28.9
2018-11-22T21:06:05.900Z,29.1
2018-11-22T21:08:05.645Z,29.1
2018-11-22T21:10:05.411Z,29.1
2018-11-22T21:12:05.075Z,29.1
2018-11-22T21:14:05.837Z,29
2018-11-22T21:16:05.493Z,29
2018-11-22T21:18:05.437Z,29
2018-11-22T21:20:05.747Z,28.9
2018-11-22T21:22:05.538Z,29
2018-11-22T21:24:05.806Z,29
2018-11-22T21:26:05.026Z,28.8
2018-11-22T21:28:08.284Z,29
2018-11-22T21:30:05.523Z,29
2018-11-22T21:32:05.195Z,29
2018-11-22T21:34:05.895Z,28.8
2018-11-22T21:36:05.565Z,29
2018-11-22T21:38:05.288Z,29
2018-11-22T21:40:05.828Z,29
2018-11-22T21:42:05.576Z,29
2018-11-22T21:44:05.250Z,28.9
2018-11-22T21:46:05.531Z,29
2018-11-22T21:48:05.553Z,29.1
2018-11-22T21:50:05.230Z,29.2
2018-11-22T21:52:06.139Z,29.3
2018-11-22T21:54:05.843Z,29.1
2018-11-22T21:56:13.217Z,29.2
2018-11-22T21:58:05.536Z,29.2
2018-11-22T22:00:05.323Z,29.3
2018-11-22T22:02:05.998Z,29
2018-11-22T22:04:05.280Z,29.4
2018-11-22T22:06:05.960Z,29.3
2018-11-22T22:08:08.283Z,29.4
2018-11-22T22:10:06.057Z,29.4
2018-11-22T22:12:10.916Z,29.2
2018-11-22T22:14:05.915Z,29.2
2018-11-22T22:16:05.747Z,29.4
2018-11-22T22:18:05.687Z,29.4
2018-11-22T22:20:05.930Z,29.3
2018-11-22T22:22:07.709Z,29.5
2018-11-22T22:24:05.403Z,29.5
2018-11-22T22:26:05.132Z,29.3
2018-11-22T22:28:05.823Z,29.4
2018-11-22T22:30:05.677Z,29.5
2018-11-22T22:32:05.946Z,29.4
2018-11-22T22:34:05.654Z,29.2
2018-11-22T22:36:05.357Z,29.2
2018-11-22T22:38:05.615Z,29.2
2018-11-22T22:40:05.269Z,29.3
2018-11-22T22:42:05.490Z,29.1
2018-11-22T22:44:05.203Z,29.2
2018-11-22T22:46:05.397Z,29.2
2018-11-22T22:48:05.598Z,29.2
2018-11-22T22:50:05.766Z,29.2
2018-11-22T22:52:05.436Z,29.4
2018-11-22T22:54:05.115Z,29.3
2018-11-22T22:56:05.791Z,29.3
2018-11-22T22:58:05.503Z,29.3
2018-11-22T23:00:07.840Z,29.2
2018-11-22T23:02:05.629Z,29.2
2018-11-22T23:04:05.303Z,29.2
2018-11-22T23:06:08.535Z,29.2
2018-11-22T23:08:10.247Z,29.2
2018-11-22T23:10:08.500Z,29.2
2018-11-22T23:12:07.748Z,29.2
2018-11-22T23:14:05.467Z,29.2
2018-11-22T23:16:07.714Z,29.2
2018-11-22T23:18:05.656Z,29.2
2018-11-22T23:20:07.869Z,29.3
2018-11-22T23:22:05.602Z,29.3
2018-11-22T23:24:05.346Z,29.2
2018-11-22T23:26:05.822Z,29.2
2018-11-22T23:28:05.555Z,29.2
2018-11-22T23:30:07.786Z,29.2
2018-11-22T23:32:05.587Z,29.1
2018-11-22T23:34:05.354Z,29.3
2018-11-22T23:36:05.092Z,29.2
2018-11-22T23:38:05.710Z,29.2
2018-11-22T23:40:05.911Z,29.3
2018-11-22T23:42:05.726Z,29.2
2018-11-22T23:44:05.396Z,29.3
2018-11-22T23:46:05.065Z,29.1
2018-11-22T23:48:05.769Z,29.3
2018-11-22T23:50:05.461Z,29.2
2018-11-22T23:52:05.367Z,29.2
2018-11-22T23:54:10.654Z,29.2
2018-11-22T23:56:05.914Z,29.2
2018-11-22T23:58:05.200Z,29.2
